Time,TemperatureF,DewpointF,PressureIn,WindDirection,WindDirectionDegrees,WindSpeedMPH,WindSpeedGustMPH,Humidity,HourlyPrecipIn,Conditions,Clouds,dailyrainin,SoftwareType,DateUTC
2013-06-01 00:12:00,70.3,64.9,29.87,WNW,292,0.0,-999.0,83,-99.99,,,0.00,Acu-Link.com,2013-06-01 04:12:00,
2013-06-01 00:27:00,70.0,64.6,29.87,WNW,292,0.0,-999.0,83,-99.99,,,0.00,Acu-Link.com,2013-06-01 04:27:00,
2013-06-01 00:42:00,69.4,64.3,29.87,WNW,292,0.0,-999.0,84,-99.99,,,0.00,Acu-Link.com,2013-06-01 04:42:00,
2013-06-01 00:58:00,69.1,64.1,29.87,WNW,292,0.0,-999.0,84,-99.99,,,0.00,Acu-Link.com,2013-06-01 04:58:00,
2013-06-01 01:13:00,68.9,63.9,29.87,WNW,292,0.0,-999.0,84,-99.99,,,0.00,Acu-Link.com,2013-06-01 05:13:00,
2013-06-01 01:28:00,68.4,63.4,29.86,WNW,292,0.0,-999.0,84,-99.99,,,0.00,Acu-Link.com,2013-06-01 05:28:00,
2013-06-01 01:44:00,67.8,63.1,29.86,WNW,292,0.0,-999.0,85,-99.99,,,0.00,Acu-Link.com,2013-06-01 05:44:00,
2013-06-01 01:59:00,67.3,62.6,29.86,WNW,292,0.0,-999.0,85,-99.99,,,0.00,Acu-Link.com,2013-06-01 05:59:00,
2013-06-01 02:14:00,66.9,62.6,29.87,WNW,292,0.0,-999.0,86,-99.99,,,0.00,Acu-Link.com,2013-06-01 06:14:00,
2013-06-01 02:29:00,66.6,62.3,29.86,WNW,292,0.0,-999.0,86,-99.99,,,0.00,Acu-Link.com,2013-06-01 06:29:00,
2013-06-01 02:45:00,66.2,61.9,29.85,WNW,292,0.0,-999.0,86,-99.99,,,0.00,Acu-Link.com,2013-06-01 06:45:00,
2013-06-01 03:00:00,66.0,62.0,29.87,WNW,292,0.0,-999.0,87,-99.99,,,0.00,Acu-Link.com,2013-06-01 07:00:00,
2013-06-01 03:15:00,65.7,61.7,29.86,WNW,292,0.0,-999.0,87,-99.99,,,0.00,Acu-Link.com,2013-06-01 07:15:00,
2013-06-01 03:30:00,65.7,62.0,29.86,WNW,292,0.0,-999.0,88,-99.99,,,0.00,Acu-Link.com,2013-06-01 07:30:00,
2013-06-01 03:46:00,65.7,62.0,29.85,WNW,292,0.0,-999.0,88,-99.99,,,0.00,Acu-Link.com,2013-06-01 07:46:00,
2013-06-01 04:01:00,65.7,62.0,29.86,WNW,292,0.0,-999.0,88,-99.99,,,0.00,Acu-Link.com,2013-06-01 08:01:00,
2013-06-01 04:18:00,65.7,62.0,29.85,WNW,292,0.0,-999.0,88,-99.99,,,0.00,Acu-Link.com,2013-06-01 08:18:00,
2013-06-01 04:34:00,65.7,62.0,29.85,WNW,292,0.0,-999.0,88,-99.99,,,0.00,Acu-Link.com,2013-06-01 08:34:00,
2013-06-01 04:49:00,65.5,61.8,29.87,WNW,292,0.0,-999.0,88,-99.99,,,0.00,Acu-Link.com,2013-06-01 08:49:00,
2013-06-01 05:04:00,65.3,61.7,29.87,WNW,292,0.0,-999.0,88,-99.99,,,0.00,Acu-Link.com,2013-06-01 09:04:00,
2013-06-01 05:19:00,65.3,62.0,29.87,WNW,292,0.0,-999.0,89,-99.99,,,0.00,Acu-Link.com,2013-06-01 09:19:00,
2013-06-01 05:34:00,64.9,61.6,29.87,WNW,292,0.0,-999.0,89,-99.99,,,0.00,Acu-Link.com,2013-06-01 09:34:00,
2013-06-01 05:50:00,64.8,61.5,29.88,WNW,292,0.0,-999.0,89,-99.99,,,0.00,Acu-Link.com,2013-06-01 09:50:00,
2013-06-01 06:05:00,64.6,61.3,29.88,WNW,292,0.0,-999.0,89,-99.99,,,0.00,Acu-Link.com,2013-06-01 10:05:00,
2013-06-01 06:20:00,64.6,61.3,29.88,WNW,292,0.0,-999.0,89,-99.99,,,0.00,Acu-Link.com,2013-06-01 10:20:00,
2013-06-01 06:35:00,64.6,61.6,29.89,WNW,292,0.0,-999.0,90,-99.99,,,0.00,Acu-Link.com,2013-06-01 10:35:00,
2013-06-01 06:51:00,64.9,61.9,29.89,WNW,292,0.0,-999.0,90,-99.99,,,0.00,Acu-Link.com,2013-06-01 10:51:00,
2013-06-01 07:06:00,65.5,62.5,29.89,WNW,292,0.0,-999.0,90,-99.99,,,0.00,Acu-Link.com,2013-06-01 11:06:00,
2013-06-01 07:21:00,66.4,63.1,29.89,WNW,292,0.0,-999.0,89,-99.99,,,0.00,Acu-Link.com,2013-06-01 11:21:00,
2013-06-01 07:37:00,67.1,63.4,29.89,WNW,292,0.0,-999.0,88,-99.99,,,0.00,Acu-Link.com,2013-06-01 11:37:00,
2013-06-01 07:52:00,68.0,64.3,29.89,WNW,292,0.0,-999.0,88,-99.99,,,0.00,Acu-Link.com,2013-06-01 11:52:00,
2013-06-01 08:07:00,69.1,65.1,29.88,WNW,292,0.0,-999.0,87,-99.99,,,0.00,Acu-Link.com,2013-06-01 12:07:00,
2013-06-01 08:22:00,70.0,65.6,29.89,WNW,292,0.0,-999.0,86,-99.99,,,0.00,Acu-Link.com,2013-06-01 12:22:00,
2013-06-01 08:38:00,71.6,66.5,29.88,WNW,292,0.0,-999.0,84,-99.99,,,0.00,Acu-Link.com,2013-06-01 12:38:00,
2013-06-01 08:53:00,74.5,67.9,29.89,SSE,157,0.0,-999.0,80,-99.99,,,0.00,Acu-Link.com,2013-06-01 12:53:00,
2013-06-01 09:08:00,76.8,67.5,29.89,NNW,337,1.7,-999.0,73,-99.99,,,0.00,Acu-Link.com,2013-06-01 13:08:00,
2013-06-01 09:24:00,76.3,67.8,29.88,WNW,292,1.7,-999.0,75,-99.99,,,0.00,Acu-Link.com,2013-06-01 13:24:00,
2013-06-01 09:39:00,78.6,68.4,29.87,West,270,1.1,-999.0,71,-99.99,,,0.00,Acu-Link.com,2013-06-01 13:39:00,
2013-06-01 09:54:00,80.2,69.1,29.87,WNW,292,2.2,-999.0,69,-99.99,,,0.00,Acu-Link.com,2013-06-01 13:54:00,
2013-06-01 10:09:00,81.0,69.0,29.87,WNW,292,1.7,-999.0,67,-99.99,,,0.00,Acu-Link.com,2013-06-01 14:09:00,
2013-06-01 10:25:00,80.2,68.7,29.86,NW,315,1.1,-999.0,68,-99.99,,,0.00,Acu-Link.com,2013-06-01 14:25:00,
2013-06-01 10:40:00,81.3,68.4,29.85,WNW,292,1.1,-999.0,65,-99.99,,,0.00,Acu-Link.com,2013-06-01 14:40:00,
2013-06-01 10:55:00,82.6,69.2,29.86,WNW,292,1.7,-999.0,64,-99.99,,,0.00,Acu-Link.com,2013-06-01 14:55:00,
2013-06-01 11:11:00,83.8,68.9,29.85,West,270,2.2,-999.0,61,-99.99,,,0.00,Acu-Link.com,2013-06-01 15:11:00,
2013-06-01 11:26:00,84.7,69.7,29.84,WSW,247,1.1,-999.0,61,-99.99,,,0.00,Acu-Link.com,2013-06-01 15:26:00,
2013-06-01 11:41:00,86.2,70.2,29.84,ESE,112,1.1,-999.0,59,-99.99,,,0.00,Acu-Link.com,2013-06-01 15:41:00,
2013-06-01 11:57:00,89.4,70.0,29.83,NNW,337,0.0,-999.0,53,-99.99,,,0.00,Acu-Link.com,2013-06-01 15:57:00,
2013-06-01 12:12:00,90.3,69.7,29.83,West,270,2.7,-999.0,51,-99.99,,,0.00,Acu-Link.com,2013-06-01 16:12:00,
2013-06-01 12:27:00,88.5,69.1,29.82,NNW,337,2.7,-999.0,53,-99.99,,,0.00,Acu-Link.com,2013-06-01 16:27:00,
2013-06-01 12:43:00,88.9,70.1,29.83,WSW,247,1.7,-999.0,54,-99.99,,,0.00,Acu-Link.com,2013-06-01 16:43:00,
2013-06-01 12:58:00,88.9,69.0,29.82,NW,315,1.7,-999.0,52,-99.99,,,0.00,Acu-Link.com,2013-06-01 16:58:00,
2013-06-01 13:13:00,88.7,69.9,29.82,SW,225,2.2,-999.0,54,-99.99,,,0.00,Acu-Link.com,2013-06-01 17:13:00,
2013-06-01 13:28:00,89.8,69.2,29.80,WNW,292,1.7,-999.0,51,-99.99,,,0.00,Acu-Link.com,2013-06-01 17:28:00,
2013-06-01 13:43:00,88.5,69.1,29.80,West,270,1.7,-999.0,53,-99.99,,,0.00,Acu-Link.com,2013-06-01 17:43:00,
2013-06-01 13:59:00,89.4,70.0,29.79,SW,225,0.0,-999.0,53,-99.99,,,0.00,Acu-Link.com,2013-06-01 17:59:00,
2013-06-01 14:14:00,90.1,70.1,29.79,West,270,2.2,-999.0,52,-99.99,,,0.00,Acu-Link.com,2013-06-01 18:14:00,
2013-06-01 14:29:00,89.6,69.6,29.78,WSW,247,1.7,-999.0,52,-99.99,,,0.00,Acu-Link.com,2013-06-01 18:29:00,
2013-06-01 14:45:00,93.4,68.8,29.78,ESE,112,3.7,-999.0,45,-99.99,,,0.00,Acu-Link.com,2013-06-01 18:45:00,
2013-06-01 15:00:00,89.4,67.1,29.78,WSW,247,2.2,-999.0,48,-99.99,,,0.00,Acu-Link.com,2013-06-01 19:00:00,
2013-06-01 15:15:00,91.6,69.1,29.77,NNW,337,1.7,-999.0,48,-99.99,,,0.00,Acu-Link.com,2013-06-01 19:15:00,
2013-06-01 15:30:00,91.9,68.7,29.76,South,180,2.7,-999.0,47,-99.99,,,0.00,Acu-Link.com,2013-06-01 19:30:00,
2013-06-01 15:46:00,91.8,67.4,29.76,WNW,292,4.7,-999.0,45,-99.99,,,0.00,Acu-Link.com,2013-06-01 19:46:00,
2013-06-01 16:01:00,91.2,68.1,29.76,West,270,0.0,-999.0,47,-99.99,,,0.00,Acu-Link.com,2013-06-01 20:01:00,
2013-06-01 16:16:00,90.5,69.3,29.75,West,270,0.0,-999.0,50,-99.99,,,0.00,Acu-Link.com,2013-06-01 20:16:00,
2013-06-01 16:31:00,91.0,70.3,29.74,South,180,1.7,-999.0,51,-99.99,,,0.00,Acu-Link.com,2013-06-01 20:31:00,
2013-06-01 16:47:00,94.6,69.9,29.74,SSE,157,1.1,-999.0,45,-99.99,,,0.00,Acu-Link.com,2013-06-01 20:47:00,
2013-06-01 17:02:00,92.3,68.5,29.75,ESE,112,1.7,-999.0,46,-99.99,,,0.00,Acu-Link.com,2013-06-01 21:02:00,
2013-06-01 17:17:00,93.6,70.3,29.74,SSW,202,0.0,-999.0,47,-99.99,,,0.00,Acu-Link.com,2013-06-01 21:17:00,
2013-06-01 17:33:00,91.9,69.4,29.73,SSW,202,2.2,-999.0,48,-99.99,,,0.00,Acu-Link.com,2013-06-01 21:33:00,
2013-06-01 17:48:00,92.5,68.0,29.73,SSW,202,1.7,-999.0,45,-99.99,,,0.00,Acu-Link.com,2013-06-01 21:48:00,
2013-06-01 18:03:00,90.9,67.8,29.73,WSW,247,1.7,-999.0,47,-99.99,,,0.00,Acu-Link.com,2013-06-01 22:03:00,
2013-06-01 18:19:00,90.7,67.7,29.73,SSW,202,1.7,-999.0,47,-99.99,,,0.00,Acu-Link.com,2013-06-01 22:19:00,
2013-06-01 18:34:00,90.1,67.7,29.72,West,270,0.0,-999.0,48,-99.99,,,0.00,Acu-Link.com,2013-06-01 22:34:00,
2013-06-01 18:49:00,89.1,67.4,29.72,West,270,1.7,-999.0,49,-99.99,,,0.00,Acu-Link.com,2013-06-01 22:49:00,
2013-06-01 19:05:00,88.5,68.0,29.73,SSW,202,1.1,-999.0,51,-99.99,,,0.00,Acu-Link.com,2013-06-01 23:05:00,
2013-06-01 19:20:00,87.1,67.9,29.73,South,180,0.0,-999.0,53,-99.99,,,0.00,Acu-Link.com,2013-06-01 23:20:00,
2013-06-01 19:35:00,85.8,67.7,29.73,West,270,0.0,-999.0,55,-99.99,,,0.00,Acu-Link.com,2013-06-01 23:35:00,
2013-06-01 19:50:00,84.7,67.8,29.72,SE,135,0.0,-999.0,57,-99.99,,,0.00,Acu-Link.com,2013-06-01 23:50:00,
2013-06-01 20:05:00,84.0,67.6,29.73,SW,225,0.0,-999.0,58,-99.99,,,0.00,Acu-Link.com,2013-06-02 00:05:00,
2013-06-01 20:21:00,83.1,67.8,29.73,NE,45,0.0,-999.0,60,-99.99,,,0.00,Acu-Link.com,2013-06-02 00:21:00,
2013-06-01 20:36:00,82.0,67.7,29.73,ENE,67,0.0,-999.0,62,-99.99,,,0.00,Acu-Link.com,2013-06-02 00:36:00,
2013-06-01 20:51:00,81.3,67.5,29.74,South,180,0.0,-999.0,63,-99.99,,,0.00,Acu-Link.com,2013-06-02 00:51:00,
2013-06-01 21:07:00,81.0,67.7,29.74,SSW,202,0.0,-999.0,64,-99.99,,,0.00,Acu-Link.com,2013-06-02 01:07:00,
2013-06-01 21:22:00,80.4,68.0,29.73,SSW,202,0.0,-999.0,66,-99.99,,,0.00,Acu-Link.com,2013-06-02 01:22:00,
2013-06-01 21:37:00,79.3,67.4,29.73,SSW,202,0.0,-999.0,67,-99.99,,,0.00,Acu-Link.com,2013-06-02 01:37:00,
2013-06-01 21:53:00,78.8,67.7,29.73,SSW,202,0.0,-999.0,69,-99.99,,,0.00,Acu-Link.com,2013-06-02 01:53:00,
2013-06-01 22:08:00,77.9,66.9,29.73,SSW,202,0.0,-999.0,69,-99.99,,,0.00,Acu-Link.com,2013-06-02 02:08:00,
2013-06-01 22:23:00,77.7,67.1,29.73,South,180,0.0,-999.0,70,-99.99,,,0.00,Acu-Link.com,2013-06-02 02:23:00,
2013-06-01 22:39:00,77.2,67.5,29.73,South,180,0.0,-999.0,72,-99.99,,,0.00,Acu-Link.com,2013-06-02 02:39:00,
2013-06-01 22:54:00,76.6,66.5,29.73,South,180,0.0,-999.0,71,-99.99,,,0.00,Acu-Link.com,2013-06-02 02:54:00,
2013-06-01 23:09:00,76.3,66.6,29.73,South,180,0.0,-999.0,72,-99.99,,,0.00,Acu-Link.com,2013-06-02 03:09:00,
2013-06-01 23:25:00,75.7,66.8,29.72,South,180,0.0,-999.0,74,-99.99,,,0.00,Acu-Link.com,2013-06-02 03:25:00,
2013-06-01 23:40:00,75.2,67.1,29.72,South,180,0.0,-999.0,76,-99.99,,,0.00,Acu-Link.com,2013-06-02 03:40:00,
2013-06-01 23:55:00,74.5,66.8,29.72,South,180,0.0,-999.0,77,-99.99,,,0.00,Acu-Link.com,2013-06-02 03:55:00,